Time;durP1;ratioP1;P1;durP2;ratioP2;P2;SDS_P1;SDS_P2;PMS_P1;PMS_P2;Temp;Humidity;BMP_temperature;BMP_pressure;BME280_temperature;BME280_humidity;BME280_pressure;Samples;Min_cycle;Max_cycle;Signal;HPM_P1;HPM_P2
2023/07/01 00:01:26;;;;;;;3.40;2.80;;;28.10;40.20;;;;;;4951620;28;20437;-82
2023/07/01 00:03:54;;;;;;;2.80;2.60;;;28.00;40.30;;;;;;4960398;28;20416;-80
2023/07/01 00:06:24;;;;;;;3.07;2.80;;;28.00;40.40;;;;;;4957440;29;20512;-81
2023/07/01 00:08:53;;;;;;;3.03;2.83;;;28.00;40.20;;;;;;4965413;28;20446;-82
2023/07/01 00:11:24;;;;;;;3.10;2.80;;;28.00;40.40;;;;;;4964067;28;20447;-83
2023/07/01 00:13:52;;;;;;;2.67;2.57;;;28.00;40.40;;;;;;4965028;28;20446;-81
2023/07/01 00:16:21;;;;;;;2.67;2.57;;;28.00;40.40;;;;;;4948873;28;20450;-83
2023/07/01 00:18:50;;;;;;;3.23;2.90;;;28.00;40.50;;;;;;4954647;28;20520;-81
2023/07/01 00:21:19;;;;;;;2.43;2.33;;;28.00;40.40;;;;;;4952221;29;20458;-82
2023/07/01 00:23:48;;;;;;;3.23;2.40;;;28.00;40.40;;;;;;4957243;29;20429;-82
2023/07/01 00:26:17;;;;;;;2.50;2.40;;;28.00;40.40;;;;;;4963455;28;20473;-81
2023/07/01 00:28:50;;;;;;;2.70;2.50;;;27.90;40.50;;;;;;4961039;29;20446;-81
2023/07/01 00:31:20;;;;;;;2.77;2.57;;;27.90;40.50;;;;;;4967234;28;20983;-82
2023/07/01 00:33:48;;;;;;;3.10;2.70;;;27.90;40.30;;;;;;4968998;28;20453;-81
2023/07/01 00:36:19;;;;;;;3.27;2.97;;;27.80;40.50;;;;;;4960671;29;20448;-81
2023/07/01 00:38:48;;;;;;;2.70;2.50;;;27.80;40.70;;;;;;4960395;28;20418;-82
2023/07/01 00:41:20;;;;;;;2.50;2.30;;;27.80;40.50;;;;;;4961042;29;20447;-81
2023/07/01 00:43:54;;;;;;;3.30;2.97;;;27.80;40.70;;;;;;4957953;29;20426;-82
2023/07/01 00:46:24;;;;;;;2.13;2.03;;;27.80;41.30;;;;;;4960643;29;20563;-81
2023/07/01 00:48:53;;;;;;;2.80;2.50;;;27.80;40.90;;;;;;4960596;29;20461;-81
2023/07/01 00:51:26;;;;;;;2.37;2.17;;;27.80;40.70;;;;;;4960587;28;20486;-82
2023/07/01 00:54:02;;;;;;;2.87;2.67;;;27.70;40.80;;;;;;4961591;28;20506;-82
2023/07/01 00:56:31;;;;;;;3.00;2.23;;;27.70;41.00;;;;;;4968168;28;20432;-82
2023/07/01 00:59:04;;;;;;;5.50;2.20;;;27.70;40.90;;;;;;4960864;28;20436;-82
2023/07/01 01:01:41;;;;;;;3.40;2.40;;;27.70;41.00;;;;;;4960453;28;20430;-81
2023/07/01 01:04:14;;;;;;;4.77;2.80;;;27.70;41.00;;;;;;4965870;28;20429;-82
2023/07/01 01:06:46;;;;;;;2.80;2.60;;;27.60;41.00;;;;;;4956942;28;21013;-81
2023/07/01 01:09:18;;;;;;;2.70;2.50;;;27.60;41.00;;;;;;4960421;29;20474;-81
2023/07/01 01:11:47;;;;;;;2.50;2.30;;;27.60;41.20;;;;;;4962746;28;20432;-81
2023/07/01 01:14:17;;;;;;;2.50;2.30;;;27.60;41.20;;;;;;4973008;28;20452;-80
2023/07/01 01:16:49;;;;;;;2.77;2.57;;;27.60;41.20;;;;;;4960246;28;20462;-82
2023/07/01 01:19:27;;;;;;;2.77;2.57;;;27.60;41.00;;;;;;4947843;29;20459;-82
2023/07/01 01:22:07;;;;;;;2.40;2.30;;;27.60;41.20;;;;;;4972772;28;20428;-82
2023/07/01 01:24:36;;;;;;;2.70;2.40;;;27.60;41.20;;;;;;4962266;28;20483;-82
2023/07/01 01:27:08;;;;;;;2.77;2.37;;;27.50;41.40;;;;;;4958620;28;20456;-82
2023/07/01 01:29:39;;;;;;;2.57;2.37;;;27.50;41.30;;;;;;4976356;28;20466;-82
2023/07/01 01:32:09;;;;;;;2.60;2.43;;;27.50;41.20;;;;;;4980309;28;20432;-82
2023/07/01 01:34:38;;;;;;;2.50;2.40;;;27.50;41.20;;;;;;4962794;28;20890;-81
2023/07/01 01:37:12;;;;;;;2.97;2.37;;;27.50;41.40;;;;;;4960780;29;20506;-81
2023/07/01 01:39:43;;;;;;;2.33;2.10;;;27.50;41.50;;;;;;4968604;28;20452;-83
2023/07/01 01:42:14;;;;;;;3.53;2.60;;;27.50;41.40;;;;;;4970891;28;20462;-83
2023/07/01 01:44:47;;;;;;;2.17;2.07;;;27.50;41.40;;;;;;4963651;29;20452;-82
2023/07/01 01:47:17;;;;;;;4.33;2.43;;;27.50;41.40;;;;;;4950901;28;20513;-81
2023/07/01 01:49:45;;;;;;;4.77;3.30;;;27.50;41.50;;;;;;4970122;28;20507;-82
2023/07/01 01:52:15;;;;;;;4.27;3.87;;;27.40;41.50;;;;;;4970242;28;20420;-81
2023/07/01 01:54:44;;;;;;;15.53;11.40;;;27.50;41.50;;;;;;4960974;28;20441;-81
2023/07/01 01:57:13;;;;;;;5.43;4.90;;;27.40;41.40;;;;;;4971648;28;20923;-81
2023/07/01 01:59:42;;;;;;;7.57;6.87;;;27.40;41.60;;;;;;4958495;29;20443;-81
2023/07/01 02:02:12;;;;;;;11.90;9.77;;;27.40;41.70;;;;;;4958289;28;20428;-81
2023/07/01 02:04:40;;;;;;;10.70;9.20;;;27.40;41.50;;;;;;4970341;28;20538;-80
2023/07/01 02:07:09;;;;;;;14.53;10.13;;;27.40;41.70;;;;;;4958943;29;20443;-80
2023/07/01 02:09:37;;;;;;;12.67;9.30;;;27.40;41.60;;;;;;4958423;28;20529;-80
2023/07/01 02:12:06;;;;;;;13.30;9.30;;;27.40;41.80;;;;;;4958802;29;20488;-80
2023/07/01 02:14:34;;;;;;;9.70;8.57;;;27.30;41.60;;;;;;4968726;28;20473;-82
2023/07/01 02:17:02;;;;;;;10.20;8.47;;;27.30;41.80;;;;;;4979204;28;20446;-82
2023/07/01 02:19:32;;;;;;;9.90;7.80;;;27.30;41.70;;;;;;4968538;28;20540;-82
2023/07/01 02:22:01;;;;;;;12.80;10.00;;;27.30;41.90;;;;;;4957647;28;20492;-82
2023/07/01 02:24:30;;;;;;;13.13;8.23;;;27.30;41.90;;;;;;4963026;28;20467;-82
2023/07/01 02:27:01;;;;;;;9.70;8.43;;;27.30;41.90;;;;;;4958465;29;20442;-80
2023/07/01 02:29:29;;;;;;;10.00;8.47;;;27.30;41.90;;;;;;4958693;29;20453;-81
2023/07/01 02:31:58;;;;;;;11.47;9.20;;;27.30;41.90;;;;;;4951101;29;20986;-80
2023/07/01 02:34:27;;;;;;;11.87;9.00;;;27.30;41.90;;;;;;4967066;28;20437;-81
2023/07/01 02:36:57;;;;;;;11.20;8.10;;;27.20;41.90;;;;;;4959332;29;20498;-82
2023/07/01 02:39:26;;;;;;;10.43;8.17;;;27.20;42.00;;;;;;4965759;28;20434;-82
2023/07/01 02:41:55;;;;;;;9.70;8.03;;;27.20;42.00;;;;;;4960639;28;20428;-82
2023/07/01 02:44:23;;;;;;;10.67;7.93;;;27.20;42.00;;;;;;4960079;29;20430;-82
2023/07/01 02:46:52;;;;;;;9.00;7.93;;;27.20;42.00;;;;;;4959083;28;20477;-82
2023/07/01 02:49:21;;;;;;;9.17;7.67;;;27.20;42.10;;;;;;4963740;28;20474;-82
2023/07/01 02:51:49;;;;;;;9.37;7.33;;;27.10;42.00;;;;;;4958351;29;20454;-82
2023/07/01 02:54:19;;;;;;;10.23;7.30;;;27.20;42.10;;;;;;4965735;28;20475;-80
2023/07/01 02:56:48;;;;;;;9.63;7.40;;;27.10;41.90;;;;;;4959246;29;20421;-81
2023/07/01 02:59:17;;;;;;;10.30;7.63;;;27.10;42.10;;;;;;4962720;28;20464;-82
2023/07/01 03:01:46;;;;;;;10.63;8.90;;;27.10;42.10;;;;;;4969038;28;20414;-82
2023/07/01 03:04:15;;;;;;;9.17;7.63;;;27.20;42.10;;;;;;4958483;29;20538;-82
2023/07/01 03:06:48;;;;;;;8.90;7.90;;;27.10;42.00;;;;;;4968444;28;20454;-82
2023/07/01 03:09:16;;;;;;;7.57;6.73;;;27.10;42.10;;;;;;4978178;28;20441;-81
2023/07/01 03:11:47;;;;;;;9.50;8.20;;;27.10;42.70;;;;;;4960448;28;20473;-82
2023/07/01 03:14:18;;;;;;;8.63;7.77;;;27.10;42.00;;;;;;4958505;29;20429;-83
2023/07/01 03:16:49;;;;;;;7.77;6.97;;;27.10;42.10;;;;;;4966488;28;20448;-82
2023/07/01 03:19:19;;;;;;;8.03;7.23;;;27.00;42.00;;;;;;4957929;29;20418;-82
2023/07/01 03:21:47;;;;;;;9.90;8.00;;;27.00;42.10;;;;;;4956307;28;20437;-82
2023/07/01 03:24:16;;;;;;;7.77;6.97;;;27.00;42.10;;;;;;4966242;28;20418;-82
2023/07/01 03:26:46;;;;;;;10.20;7.47;;;27.10;42.20;;;;;;4958152;29;20445;-82
2023/07/01 03:29:14;;;;;;;10.17;7.47;;;27.00;42.10;;;;;;4968445;28;20491;-83
2023/07/01 03:31:43;;;;;;;11.30;7.37;;;27.00;42.10;;;;;;4969399;28;20504;-82
2023/07/01 03:34:11;;;;;;;7.70;6.90;;;27.10;42.10;;;;;;4970381;28;20421;-82
2023/07/01 03:36:40;;;;;;;8.77;7.43;;;27.00;42.10;;;;;;4959384;28;20453;-81
2023/07/01 03:39:08;;;;;;;10.93;7.30;;;27.00;42.00;;;;;;4958818;29;20437;-81
2023/07/01 03:41:38;;;;;;;8.70;7.53;;;27.00;42.00;;;;;;4958492;29;20422;-80
2023/07/01 03:44:08;;;;;;;8.03;7.03;;;27.00;42.00;;;;;;4957966;29;20868;-80
2023/07/01 03:46:39;;;;;;;9.40;7.77;;;27.00;42.00;;;;;;4958263;28;20439;-81
2023/07/01 03:49:07;;;;;;;7.30;6.60;;;27.00;42.00;;;;;;4962697;28;20425;-81
2023/07/01 03:51:36;;;;;;;12.63;6.70;;;27.00;42.10;;;;;;4961433;28;20447;-81
2023/07/01 03:54:04;;;;;;;6.63;5.93;;;27.00;42.10;;;;;;4957541;29;20437;-80
2023/07/01 03:56:34;;;;;;;7.73;6.50;;;27.00;42.10;;;;;;4958325;29;20429;-81
2023/07/01 03:59:03;;;;;;;6.80;6.10;;;27.00;42.20;;;;;;4950449;29;20417;-80
2023/07/01 04:01:36;;;;;;;8.37;6.07;;;27.00;42.40;;;;;;4967102;28;20477;-80
2023/07/01 04:04:07;;;;;;;6.63;5.93;;;26.90;42.50;;;;;;4962752;28;20418;-80
2023/07/01 04:06:35;;;;;;;7.90;6.03;;;26.90;42.60;;;;;;4971865;28;20429;-80
2023/07/01 04:09:04;;;;;;;8.00;6.20;;;26.90;42.60;;;;;;4970720;28;20422;-81
2023/07/01 04:11:32;;;;;;;7.03;6.00;;;26.90;42.80;;;;;;4962278;28;20502;-80
2023/07/01 04:14:00;;;;;;;6.57;5.93;;;26.90;42.80;;;;;;4961747;28;20455;-81
2023/07/01 04:16:29;;;;;;;7.70;5.70;;;26.80;42.70;;;;;;4963766;28;20532;-80
2023/07/01 04:18:59;;;;;;;6.87;5.53;;;26.90;43.10;;;;;;4973749;28;20451;-82
2023/07/01 04:21:28;;;;;;;5.80;5.30;;;26.80;43.00;;;;;;4967256;28;20417;-81
2023/07/01 04:23:56;;;;;;;5.80;5.30;;;26.80;43.10;;;;;;4962001;29;20422;-80
2023/07/01 04:26:26;;;;;;;6.73;5.57;;;26.80;43.20;;;;;;4977000;28;20489;-81
2023/07/01 04:28:54;;;;;;;6.17;5.30;;;26.80;43.30;;;;;;4960633;28;20430;-80
2023/07/01 04:31:22;;;;;;;7.43;5.17;;;26.70;43.10;;;;;;4958784;28;20529;-81
2023/07/01 04:33:51;;;;;;;5.60;5.03;;;26.70;43.50;;;;;;4962747;28;20418;-81
2023/07/01 04:36:21;;;;;;;4.50;4.20;;;26.70;43.40;;;;;;4958285;28;20463;-81
2023/07/01 04:38:49;;;;;;;11.43;5.03;;;26.70;43.50;;;;;;4971193;28;20436;-81
2023/07/01 04:41:17;;;;;;;5.80;4.63;;;26.70;43.40;;;;;;4967725;28;20405;-81
2023/07/01 04:43:45;;;;;;;5.50;5.00;;;26.70;43.60;;;;;;4960588;29;20460;-81
2023/07/01 04:46:14;;;;;;;6.50;5.17;;;26.70;43.50;;;;;;4965323;28;20466;-81
2023/07/01 04:48:43;;;;;;;6.87;4.97;;;26.70;43.50;;;;;;4963766;28;20520;-81
2023/07/01 04:51:11;;;;;;;5.43;4.90;;;26.70;43.50;;;;;;4975165;28;20465;-82
2023/07/01 04:53:40;;;;;;;6.27;4.20;;;26.70;43.50;;;;;;4969527;28;20476;-81
2023/07/01 04:56:09;;;;;;;5.03;4.37;;;26.70;43.70;;;;;;4951797;29;20437;-81
2023/07/01 04:58:38;;;;;;;6.83;4.67;;;26.70;43.80;;;;;;4975203;28;20443;-81
2023/07/01 05:01:07;;;;;;;5.77;4.50;;;26.70;43.60;;;;;;4951602;28;20440;-82
2023/07/01 05:03:35;;;;;;;6.03;4.57;;;26.70;43.80;;;;;;4959700;29;20447;-80
2023/07/01 05:06:04;;;;;;;5.10;4.43;;;26.70;43.90;;;;;;4963938;28;20478;-80
2023/07/01 05:08:32;;;;;;;4.27;3.87;;;26.60;44.00;;;;;;4964246;28;20487;-80
2023/07/01 05:11:03;;;;;;;4.33;4.00;;;26.60;44.00;;;;;;4963045;28;20464;-80
2023/07/01 05:13:31;;;;;;;5.60;4.20;;;26.70;44.10;;;;;;4964619;28;20417;-81
2023/07/01 05:15:59;;;;;;;4.47;4.07;;;26.70;44.10;;;;;;4969052;28;20448;-80
2023/07/01 05:18:27;;;;;;;5.73;3.90;;;26.60;44.00;;;;;;4970054;28;20447;-81
2023/07/01 05:20:55;;;;;;;5.03;3.90;;;26.60;44.20;;;;;;4963830;28;20414;-80
2023/07/01 05:23:24;;;;;;;3.43;3.17;;;26.60;44.00;;;;;;4970111;28;20428;-80
2023/07/01 05:25:52;;;;;;;4.00;3.70;;;26.60;44.20;;;;;;4964260;28;20449;-81
2023/07/01 05:28:22;;;;;;;4.50;3.73;;;26.60;44.20;;;;;;4962315;28;20454;-81
2023/07/01 05:30:50;;;;;;;5.40;3.93;;;26.60;44.30;;;;;;4969807;28;20467;-80
2023/07/01 05:33:20;;;;;;;4.17;3.80;;;26.60;44.20;;;;;;4961558;29;20447;-80
2023/07/01 05:35:48;;;;;;;3.90;3.47;;;26.60;44.30;;;;;;4961130;29;20449;-80
2023/07/01 05:38:17;;;;;;;3.80;3.50;;;26.60;44.40;;;;;;4958514;29;20473;-80
2023/07/01 05:40:45;;;;;;;4.87;3.60;;;26.60;44.40;;;;;;4961898;28;20458;-81
2023/07/01 05:43:13;;;;;;;4.40;3.47;;;26.50;44.30;;;;;;4958352;28;20419;-80
2023/07/01 05:45:43;;;;;;;3.87;3.57;;;26.60;44.50;;;;;;4968184;28;20478;-80
2023/07/01 05:48:12;;;;;;;4.17;3.50;;;26.50;44.50;;;;;;4964796;28;20517;-80
2023/07/01 05:50:40;;;;;;;4.20;3.23;;;26.50;44.60;;;;;;4964106;28;20453;-80
2023/07/01 05:53:09;;;;;;;5.90;2.97;;;26.50;44.50;;;;;;4954690;28;20451;-81
2023/07/01 05:55:37;;;;;;;3.53;3.33;;;26.60;44.60;;;;;;4964777;28;20470;-81
2023/07/01 05:58:05;;;;;;;3.73;3.30;;;26.60;44.60;;;;;;4958997;28;20485;-81
2023/07/01 06:00:34;;;;;;;5.17;3.93;;;26.60;44.60;;;;;;4965611;28;20502;-81
2023/07/01 06:03:04;;;;;;;3.73;3.43;;;26.60;44.70;;;;;;4967952;28;20437;-82
2023/07/01 06:05:32;;;;;;;3.93;3.57;;;26.60;44.60;;;;;;4966152;28;20434;-81
2023/07/01 06:08:01;;;;;;;3.10;2.80;;;26.60;44.60;;;;;;4966703;28;21031;-81
2023/07/01 06:10:29;;;;;;;3.10;3.00;;;26.60;44.70;;;;;;4967871;28;20447;-80
2023/07/01 06:12:58;;;;;;;3.53;3.30;;;26.60;44.60;;;;;;4960990;28;20450;-79
2023/07/01 06:15:26;;;;;;;3.80;3.13;;;26.60;44.60;;;;;;4946605;28;20517;-81
2023/07/01 06:17:55;;;;;;;3.30;3.03;;;26.60;44.60;;;;;;4965128;28;20509;-81
2023/07/01 06:20:25;;;;;;;3.33;3.03;;;26.60;44.70;;;;;;4961362;28;20484;-81
2023/07/01 06:22:57;;;;;;;3.20;3.00;;;26.60;44.80;;;;;;4953100;29;20455;-81
2023/07/01 06:25:26;;;;;;;3.60;3.30;;;26.60;44.80;;;;;;4966653;28;20525;-80
2023/07/01 06:27:55;;;;;;;3.47;3.17;;;26.60;44.80;;;;;;4962000;28;20485;-80
2023/07/01 06:30:23;;;;;;;3.87;3.00;;;26.60;44.90;;;;;;4972051;28;20432;-80
2023/07/01 06:32:53;;;;;;;4.60;3.50;;;26.60;45.00;;;;;;4968640;28;20477;-80
2023/07/01 06:35:23;;;;;;;3.93;3.00;;;26.60;45.00;;;;;;4974395;28;20496;-81
2023/07/01 06:37:52;;;;;;;6.63;3.57;;;26.60;45.10;;;;;;4966481;28;20434;-81
2023/07/01 06:40:21;;;;;;;3.37;3.07;;;26.60;45.10;;;;;;4956116;28;20445;-80
2023/07/01 06:42:49;;;;;;;3.40;3.20;;;26.60;45.10;;;;;;4958150;28;20421;-81
2023/07/01 06:45:18;;;;;;;3.70;3.40;;;26.60;45.20;;;;;;4959034;29;20446;-81
2023/07/01 06:47:46;;;;;;;3.67;3.10;;;26.60;45.20;;;;;;4959183;28;20422;-79
2023/07/01 06:50:14;;;;;;;3.80;3.40;;;26.60;45.20;;;;;;4955547;28;20481;-81
2023/07/01 06:52:44;;;;;;;3.87;3.00;;;26.60;45.40;;;;;;4953217;28;20502;-80
2023/07/01 06:55:13;;;;;;;2.53;2.43;;;26.60;45.40;;;;;;4949135;28;20448;-80
2023/07/01 06:57:42;;;;;;;2.90;2.70;;;26.60;45.50;;;;;;4948941;28;20459;-80
2023/07/01 07:00:12;;;;;;;3.20;2.90;;;26.60;45.40;;;;;;4956483;29;20447;-79
2023/07/01 07:02:40;;;;;;;3.27;2.90;;;26.60;45.50;;;;;;4959053;29;20540;-79
2023/07/01 07:05:09;;;;;;;3.60;3.23;;;26.60;45.50;;;;;;4954209;28;20697;-80
2023/07/01 07:07:37;;;;;;;3.60;2.90;;;26.60;45.60;;;;;;4953326;28;20475;-80
2023/07/01 07:10:08;;;;;;;3.10;2.90;;;26.60;45.60;;;;;;4957382;28;20455;-81
2023/07/01 07:12:36;;;;;;;3.97;2.97;;;26.60;45.50;;;;;;4960358;28;20466;-81
2023/07/01 07:15:05;;;;;;;3.10;2.90;;;26.60;45.70;;;;;;4952518;28;20495;-82
2023/07/01 07:17:34;;;;;;;3.50;2.93;;;26.60;45.80;;;;;;4957273;28;20418;-82
2023/07/01 07:20:02;;;;;;;3.67;2.60;;;26.60;45.80;;;;;;4956665;28;20446;-82
2023/07/01 07:22:30;;;;;;;3.53;3.33;;;26.60;45.80;;;;;;4958664;29;20455;-82
2023/07/01 07:24:58;;;;;;;3.40;3.10;;;26.50;45.80;;;;;;4955155;29;20535;-82
2023/07/01 07:27:28;;;;;;;3.60;3.30;;;26.60;45.90;;;;;;4960084;29;20430;-82
2023/07/01 07:29:56;;;;;;;3.00;2.70;;;26.50;45.90;;;;;;4961874;29;20484;-81
2023/07/01 07:32:24;;;;;;;3.27;2.47;;;26.50;46.00;;;;;;4966893;28;20448;-81
2023/07/01 07:34:53;;;;;;;4.60;2.53;;;26.60;46.10;;;;;;4962479;28;20442;-81
2023/07/01 07:37:20;;;;;;;2.90;2.70;;;26.50;46.00;;;;;;4964018;28;20437;-84
2023/07/01 07:39:49;;;;;;;3.17;2.70;;;26.50;46.20;;;;;;4971225;29;20471;-83
2023/07/01 07:42:16;;;;;;;3.73;2.43;;;26.50;46.20;;;;;;4967060;29;20471;-82
2023/07/01 07:44:46;;;;;;;2.93;2.50;;;26.50;46.30;;;;;;4969900;29;20437;-84
2023/07/01 07:47:14;;;;;;;3.20;2.80;;;26.50;46.30;;;;;;4963253;28;20455;-83
2023/07/01 07:49:43;;;;;;;2.70;2.50;;;26.50;46.40;;;;;;4959508;29;20996;-84
2023/07/01 07:52:11;;;;;;;2.83;2.63;;;26.50;46.40;;;;;;4969565;28;20454;-82
2023/07/01 07:54:41;;;;;;;4.57;2.57;;;26.60;46.50;;;;;;4967041;28;20472;-81
2023/07/01 07:57:09;;;;;;;2.93;2.73;;;26.50;46.70;;;;;;4969227;28;20431;-82
2023/07/01 07:59:37;;;;;;;3.60;2.70;;;26.50;46.70;;;;;;4972062;29;20448;-80
2023/07/01 08:02:09;;;;;;;2.80;2.60;;;26.60;47.00;;;;;;4962174;29;20442;-82
2023/07/01 08:04:37;;;;;;;4.30;2.43;;;26.50;46.90;;;;;;4962976;29;20502;-82
2023/07/01 08:07:07;;;;;;;3.50;2.50;;;26.50;47.20;;;;;;4960889;28;20958;-82
2023/07/01 08:09:35;;;;;;;2.30;2.20;;;26.50;47.30;;;;;;4964286;28;20425;-82
2023/07/01 08:12:04;;;;;;;2.97;2.60;;;26.50;47.40;;;;;;4968220;29;20467;-83
2023/07/01 08:14:32;;;;;;;4.83;2.60;;;26.50;47.40;;;;;;4967361;29;20457;-83
2023/07/01 08:17:00;;;;;;;2.60;2.40;;;26.50;47.50;;;;;;4970416;29;20478;-84
2023/07/01 08:19:30;;;;;;;2.90;2.70;;;26.50;47.70;;;;;;4969580;28;20447;-83
2023/07/01 08:21:58;;;;;;;2.73;2.03;;;26.50;47.70;;;;;;4970706;29;20425;-83
2023/07/01 08:24:27;;;;;;;2.40;2.30;;;26.60;47.80;;;;;;4970843;28;20474;-83
2023/07/01 08:26:55;;;;;;;6.00;2.50;;;26.50;48.00;;;;;;4964897;29;20422;-84
2023/07/01 08:29:24;;;;;;;3.33;2.53;;;26.50;48.00;;;;;;4955499;28;20502;-83
2023/07/01 08:31:52;;;;;;;5.70;2.53;;;26.50;48.00;;;;;;4961223;29;20482;-83
2023/07/01 08:34:20;;;;;;;2.47;2.30;;;26.50;48.10;;;;;;4964909;28;20422;-82
2023/07/01 08:36:50;;;;;;;3.70;3.07;;;26.50;48.20;;;;;;4962753;29;20429;-82
2023/07/01 08:39:18;;;;;;;3.00;2.80;;;26.50;48.30;;;;;;4963415;28;20457;-83
2023/07/01 08:41:49;;;;;;;1.97;1.87;;;26.50;48.50;;;;;;4965631;29;20477;-82
2023/07/01 08:44:18;;;;;;;3.53;2.30;;;26.50;48.60;;;;;;4963232;28;20483;-83
2023/07/01 08:46:46;;;;;;;2.60;2.40;;;26.50;48.70;;;;;;4963005;28;20511;-84
2023/07/01 08:49:15;;;;;;;2.70;2.50;;;26.50;48.80;;;;;;4960828;28;20995;-84
2023/07/01 08:51:43;;;;;;;3.10;2.57;;;26.50;48.80;;;;;;4959012;29;20455;-83
2023/07/01 08:54:13;;;;;;;2.60;2.40;;;26.50;48.90;;;;;;4964696;28;20455;-84
2023/07/01 08:56:41;;;;;;;4.63;2.80;;;26.50;48.90;;;;;;4963692;28;20426;-84
2023/07/01 08:59:09;;;;;;;4.57;2.60;;;26.50;49.00;;;;;;4963698;29;20426;-83
2023/07/01 09:01:37;;;;;;;2.50;2.30;;;26.50;49.10;;;;;;4961789;28;20447;-84
2023/07/01 09:04:05;;;;;;;2.60;2.40;;;26.40;49.10;;;;;;4966967;29;20470;-84
2023/07/01 09:06:34;;;;;;;4.83;2.70;;;26.40;49.20;;;;;;4960350;29;20535;-86
2023/07/01 09:09:02;;;;;;;2.93;2.73;;;26.40;49.40;;;;;;4964428;28;20459;-82
2023/07/01 09:11:32;;;;;;;4.00;2.77;;;26.40;49.40;;;;;;4968369;28;20451;-84
2023/07/01 09:14:00;;;;;;;2.93;2.63;;;26.40;49.60;;;;;;4967606;28;20499;-84
2023/07/01 09:16:33;;;;;;;2.83;2.60;;;26.40;49.50;;;;;;4968789;28;20467;-84
2023/07/01 09:19:05;;;;;;;3.27;2.50;;;26.40;49.60;;;;;;4967387;29;20418;-83
2023/07/01 09:21:34;;;;;;;2.70;2.50;;;26.40;49.60;;;;;;4967135;28;20539;-83
2023/07/01 09:24:05;;;;;;;2.30;2.20;;;26.40;49.60;;;;;;4959813;29;20435;-83
2023/07/01 09:26:34;;;;;;;3.10;2.80;;;26.40;49.80;;;;;;4959513;29;20455;-83
2023/07/01 09:29:09;;;;;;;2.77;2.57;;;26.40;49.80;;;;;;4957346;29;20451;-81
2023/07/01 09:31:47;;;;;;;4.63;2.50;;;26.40;49.70;;;;;;4960237;29;20417;-82
2023/07/01 09:34:16;;;;;;;2.77;2.60;;;26.40;49.80;;;;;;4957361;29;20528;-83
2023/07/01 09:36:45;;;;;;;3.00;2.80;;;26.50;49.70;;;;;;4961242;28;20435;-83
2023/07/01 09:39:13;;;;;;;4.50;2.50;;;26.40;49.80;;;;;;4961407;29;20422;-83
2023/07/01 09:41:43;;;;;;;3.77;3.47;;;26.40;49.90;;;;;;4962066;29;20538;-83
2023/07/01 09:44:16;;;;;;;2.83;2.63;;;26.50;50.00;;;;;;4964190;28;20498;-83
2023/07/01 09:46:46;;;;;;;2.60;2.40;;;26.50;50.10;;;;;;4965397;29;20467;-83
2023/07/01 09:49:15;;;;;;;3.10;2.80;;;26.50;50.20;;;;;;4963568;29;20534;-83
2023/07/01 09:51:48;;;;;;;3.00;2.80;;;26.50;50.20;;;;;;4965836;28;20455;-83
2023/07/01 09:54:26;;;;;;;2.83;2.60;;;26.50;50.20;;;;;;4966391;28;20530;-83
2023/07/01 09:56:57;;;;;;;3.33;3.00;;;26.50;50.30;;;;;;4966678;28;20466;-83
2023/07/01 09:59:25;;;;;;;3.67;2.67;;;26.50;50.20;;;;;;4963632;28;20446;-84
2023/07/01 10:01:55;;;;;;;2.97;2.77;;;26.50;50.30;;;;;;4963927;29;20425;-81
2023/07/01 10:04:25;;;;;;;3.07;2.87;;;26.50;50.60;;;;;;4956155;28;20538;-84
2023/07/01 10:06:54;;;;;;;2.80;2.70;;;26.50;50.60;;;;;;4965678;29;20449;-81
2023/07/01 10:09:23;;;;;;;3.10;2.90;;;26.50;50.60;;;;;;4964078;28;20451;-82
2023/07/01 10:11:52;;;;;;;3.60;3.30;;;26.50;50.80;;;;;;4964503;29;20443;-82
2023/07/01 10:14:23;;;;;;;7.57;3.57;;;26.50;51.00;;;;;;4962278;28;20479;-82
2023/07/01 10:16:51;;;;;;;4.00;3.70;;;26.50;50.90;;;;;;4963817;29;20426;-83
2023/07/01 10:19:29;;;;;;;3.80;3.60;;;26.50;51.00;;;;;;4962975;29;20539;-82
2023/07/01 10:22:22;;;;;;;3.83;3.50;;;26.50;50.90;;;;;;4962890;29;20458;-83
2023/07/01 10:24:55;;;;;;;4.30;4.00;;;26.50;51.00;;;;;;4958249;29;20438;-82
2023/07/01 10:28:15;;;;;;;4.50;4.20;;;26.50;51.00;;;;;;4970071;28;20447;-82
2023/07/01 10:31:15;;;;;;;4.10;3.70;;;26.50;51.20;;;;;;4961561;29;20499;-83
2023/07/01 10:34:04;;;;;;;4.67;3.67;;;26.50;51.30;;;;;;4948491;29;20479;-82
2023/07/01 10:36:36;;;;;;;4.40;4.10;;;26.50;51.40;;;;;;4942758;28;20429;-82
2023/07/01 10:39:34;;;;;;;4.27;3.97;;;26.40;51.20;;;;;;4962290;29;20451;-83
2023/07/01 10:42:02;;;;;;;4.53;4.23;;;26.50;51.40;;;;;;4961643;29;20448;-83
2023/07/01 10:44:31;;;;;;;5.00;4.17;;;26.50;51.40;;;;;;4952483;28;20457;-82
2023/07/01 10:47:16;;;;;;;4.20;3.90;;;26.50;51.40;;;;;;4965188;29;20422;-83
2023/07/01 10:50:05;;;;;;;5.50;5.07;;;26.50;51.60;;;;;;4952914;29;20466;-81
2023/07/01 10:52:59;;;;;;;4.67;4.27;;;26.50;51.50;;;;;;4962745;28;20426;-83
2023/07/01 10:55:38;;;;;;;5.17;4.63;;;26.50;51.50;;;;;;4957034;29;20455;-83
2023/07/01 10:58:21;;;;;;;4.93;4.53;;;26.50;51.60;;;;;;4963072;28;20429;-83
2023/07/01 11:00:50;;;;;;;5.27;4.77;;;26.60;51.60;;;;;;4961285;28;20828;-84
2023/07/01 11:03:55;;;;;;;5.53;4.80;;;26.50;51.40;;;;;;4962534;28;20418;-83
2023/07/01 11:06:23;;;;;;;5.50;5.10;;;26.50;51.80;;;;;;4905950;29;20465;-83
2023/07/01 11:08:53;;;;;;;5.63;4.60;;;26.50;51.60;;;;;;4956792;29;20502;-82
2023/07/01 11:11:22;;;;;;;5.13;4.73;;;26.50;51.50;;;;;;4962078;28;20443;-82
2023/07/01 11:13:56;;;;;;;6.00;5.20;;;26.60;51.70;;;;;;4963149;29;20474;-82
2023/07/01 11:16:24;;;;;;;5.63;5.17;;;26.60;51.80;;;;;;4957390;29;20538;-82
2023/07/01 11:18:56;;;;;;;7.30;5.60;;;26.60;51.70;;;;;;4962831;29;20457;-81
2023/07/01 11:21:25;;;;;;;4.97;4.67;;;26.60;51.80;;;;;;4959480;28;20425;-82
2023/07/01 11:23:59;;;;;;;4.97;4.67;;;26.60;51.90;;;;;;4962417;29;20451;-82
2023/07/01 11:26:29;;;;;;;5.00;4.60;;;26.60;51.80;;;;;;4962971;28;20481;-81
2023/07/01 11:28:57;;;;;;;5.43;4.93;;;26.60;51.70;;;;;;4953660;29;20451;-82
2023/07/01 11:31:26;;;;;;;5.20;4.80;;;26.60;51.80;;;;;;4962043;28;20422;-82
2023/07/01 11:33:56;;;;;;;5.63;5.10;;;26.70;51.90;;;;;;4958059;29;20446;-82
2023/07/01 11:36:34;;;;;;;4.70;4.40;;;26.80;51.80;;;;;;4962695;29;20481;-82
2023/07/01 11:39:07;;;;;;;5.30;4.87;;;26.80;51.80;;;;;;4954171;28;20419;-81
2023/07/01 11:41:36;;;;;;;4.80;4.50;;;26.80;51.80;;;;;;4957960;29;20483;-83
2023/07/01 11:44:06;;;;;;;5.80;5.30;;;26.80;51.90;;;;;;4964072;28;20421;-83
2023/07/01 11:46:37;;;;;;;5.07;4.77;;;26.80;52.00;;;;;;4967089;29;20422;-82
2023/07/01 11:49:15;;;;;;;5.00;4.60;;;26.80;52.10;;;;;;4961587;29;20505;-82
2023/07/01 11:51:44;;;;;;;4.73;4.43;;;26.80;52.20;;;;;;4956068;28;20926;-82
2023/07/01 11:54:13;;;;;;;5.17;4.77;;;26.80;52.20;;;;;;4981615;28;20444;-83
2023/07/01 11:56:45;;;;;;;5.20;4.63;;;26.80;52.40;;;;;;4982795;28;20425;-84
2023/07/01 11:59:29;;;;;;;4.80;4.43;;;26.80;52.50;;;;;;4979234;28;20429;-85
2023/07/01 12:01:57;;;;;;;4.63;4.30;;;26.90;52.70;;;;;;4979057;28;20474;-84
2023/07/01 12:04:29;;;;;;;4.90;4.60;;;26.90;52.70;;;;;;4970087;29;20430;-82
2023/07/01 12:07:08;;;;;;;5.30;4.90;;;26.90;52.60;;;;;;4961736;29;20459;-82
2023/07/01 12:09:36;;;;;;;4.40;4.10;;;26.90;53.00;;;;;;4964768;29;20449;-83
2023/07/01 12:12:06;;;;;;;4.50;4.20;;;26.90;53.00;;;;;;4964461;29;20447;-83
2023/07/01 12:14:34;;;;;;;4.73;4.43;;;26.80;53.00;;;;;;4955815;29;20481;-83
2023/07/01 12:17:03;;;;;;;4.77;4.37;;;26.80;53.00;;;;;;4963703;28;20426;-84
2023/07/01 12:19:32;;;;;;;5.27;4.87;;;26.80;53.10;;;;;;4964545;29;20478;-83
2023/07/01 12:22:01;;;;;;;4.60;4.30;;;26.80;53.10;;;;;;4969309;28;20487;-85
2023/07/01 12:24:29;;;;;;;5.07;4.67;;;26.90;53.10;;;;;;4966868;29;20459;-83
2023/07/01 12:26:58;;;;;;;4.80;4.50;;;26.80;53.00;;;;;;4962268;29;20890;-83
2023/07/01 12:29:27;;;;;;;4.83;4.53;;;26.80;53.20;;;;;;4968637;29;20539;-84
2023/07/01 12:31:57;;;;;;;5.50;5.10;;;26.80;53.20;;;;;;4968447;29;20502;-84
2023/07/01 12:34:26;;;;;;;5.20;4.80;;;26.90;53.20;;;;;;4977755;28;20470;-84
2023/07/01 12:36:56;;;;;;;5.60;5.20;;;26.80;53.30;;;;;;4968814;29;20451;-84
2023/07/01 12:39:24;;;;;;;6.30;5.13;;;26.80;53.30;;;;;;4966079;29;20443;-83
2023/07/01 12:41:54;;;;;;;5.50;4.63;;;26.80;53.30;;;;;;4966522;29;20429;-84
2023/07/01 12:44:22;;;;;;;5.27;4.87;;;26.80;53.40;;;;;;4969093;29;20454;-83
2023/07/01 12:46:51;;;;;;;5.53;5.13;;;26.90;53.30;;;;;;4975120;28;20439;-82
2023/07/01 12:49:19;;;;;;;5.37;4.87;;;26.80;53.20;;;;;;4978467;28;20430;-83
2023/07/01 12:51:47;;;;;;;5.80;5.40;;;26.80;53.30;;;;;;4968563;29;20466;-82
2023/07/01 12:54:17;;;;;;;6.20;5.70;;;26.80;53.40;;;;;;4967448;28;20441;-82
2023/07/01 12:56:47;;;;;;;5.80;5.40;;;26.80;53.50;;;;;;4967065;29;20426;-82
2023/07/01 12:59:15;;;;;;;5.67;5.27;;;26.80;53.40;;;;;;4967554;28;20462;-83
2023/07/01 13:01:45;;;;;;;5.93;5.53;;;26.80;53.60;;;;;;4968788;29;20425;-84